Time;durP1;ratioP1;P1;durP2;ratioP2;P2;SDS_P1;SDS_P2;PMS_P1;PMS_P2;Temp;Humidity;BMP_temperature;BMP_pressure;BME280_temperature;BME280_humidity;BME280_pressure;Samples;Min_cycle;Max_cycle;Signal;HPM_P1;HPM_P2
2024/02/24 00:00:03;;;;;;;4.47;1.25;;;7.70;99.90;;;;;;2068318;28;20084;-67
2024/02/24 00:01:04;;;;;;;0.95;0.80;;;7.70;99.90;;;;;;2067804;28;20023;-67
2024/02/24 00:02:13;;;;;;;3.65;1.40;;;7.70;99.90;;;;;;2071902;28;20029;-68
2024/02/24 00:03:13;;;;;;;4.20;1.40;;;7.80;99.90;;;;;;2062219;28;20023;-67
2024/02/24 00:04:14;;;;;;;1.20;1.05;;;7.70;99.90;;;;;;2055679;28;20027;-67
2024/02/24 00:05:15;;;;;;;2.67;1.15;;;7.70;99.90;;;;;;2060968;28;20041;-67
2024/02/24 00:06:15;;;;;;;2.17;1.20;;;7.70;99.90;;;;;;2066401;28;20041;-67
2024/02/24 00:07:19;;;;;;;4.05;1.52;;;7.80;99.90;;;;;;2070676;28;20014;-67
2024/02/24 00:08:19;;;;;;;1.40;0.90;;;7.80;99.90;;;;;;2068716;28;20080;-67
2024/02/24 00:09:20;;;;;;;2.65;1.00;;;7.70;99.90;;;;;;2068297;28;20052;-67
2024/02/24 00:10:22;;;;;;;2.72;1.10;;;7.80;99.90;;;;;;2066285;28;20121;-67
2024/02/24 00:11:23;;;;;;;2.08;1.15;;;7.80;99.90;;;;;;2068426;28;20113;-66
2024/02/24 00:12:26;;;;;;;2.42;1.10;;;7.80;99.90;;;;;;2069489;28;20030;-67
2024/02/24 00:13:26;;;;;;;2.35;1.20;;;7.80;99.90;;;;;;2068395;28;20038;-67
2024/02/24 00:14:27;;;;;;;1.83;1.00;;;7.80;99.90;;;;;;2068359;28;20457;-67
2024/02/24 00:15:27;;;;;;;2.80;1.30;;;7.80;99.90;;;;;;2068683;28;20041;-67
2024/02/24 00:16:28;;;;;;;1.92;1.00;;;7.80;99.90;;;;;;2059794;28;20050;-68
2024/02/24 00:17:29;;;;;;;2.63;1.10;;;7.80;99.90;;;;;;2055604;28;20687;-67
2024/02/24 00:18:29;;;;;;;2.50;1.10;;;7.80;99.90;;;;;;2059633;28;20096;-68
2024/02/24 00:19:30;;;;;;;1.02;0.93;;;7.80;99.90;;;;;;2071436;28;20042;-68
2024/02/24 00:20:31;;;;;;;1.75;0.90;;;7.80;99.90;;;;;;2071998;28;20041;-67
2024/02/24 00:21:31;;;;;;;2.72;1.30;;;7.80;99.90;;;;;;2070922;28;20034;-66
2024/02/24 00:22:32;;;;;;;1.85;1.23;;;7.80;99.90;;;;;;2078615;28;20064;-68
2024/02/24 00:23:33;;;;;;;2.90;0.98;;;7.80;99.90;;;;;;2077118;28;20101;-67
2024/02/24 00:24:33;;;;;;;1.83;1.10;;;7.80;99.90;;;;;;2076623;28;20091;-66
2024/02/24 00:25:34;;;;;;;1.58;0.93;;;7.80;99.90;;;;;;2078401;28;20471;-67
2024/02/24 00:26:34;;;;;;;1.88;0.80;;;7.80;99.90;;;;;;2076305;28;20577;-66
2024/02/24 00:27:35;;;;;;;2.03;0.90;;;7.80;99.90;;;;;;2076263;28;20030;-67
2024/02/24 00:28:36;;;;;;;3.58;0.70;;;7.80;99.90;;;;;;2076702;28;20373;-67
2024/02/24 00:29:36;;;;;;;3.60;1.17;;;7.80;99.90;;;;;;2076932;28;20025;-67
2024/02/24 00:30:37;;;;;;;1.73;1.02;;;7.80;99.90;;;;;;2078666;28;20056;-67
2024/02/24 00:31:38;;;;;;;2.05;1.02;;;7.80;99.90;;;;;;2079221;28;20018;-68
2024/02/24 00:32:41;;;;;;;3.72;0.90;;;7.80;99.90;;;;;;2076677;28;20034;-67
2024/02/24 00:33:42;;;;;;;2.10;0.90;;;7.80;99.90;;;;;;2079679;28;20029;-67
2024/02/24 00:34:44;;;;;;;2.55;0.90;;;7.80;99.90;;;;;;2076549;28;20033;-67
2024/02/24 00:35:44;;;;;;;2.35;1.05;;;7.80;99.90;;;;;;2076041;28;20030;-66
2024/02/24 00:36:48;;;;;;;1.73;0.90;;;7.80;99.90;;;;;;2075676;28;20161;-68
2024/02/24 00:37:49;;;;;;;1.83;0.75;;;7.80;99.90;;;;;;2070030;28;20077;-66
2024/02/24 00:38:49;;;;;;;1.30;0.80;;;7.80;99.90;;;;;;2069202;28;20041;-68
2024/02/24 00:39:51;;;;;;;5.03;1.73;;;7.80;99.90;;;;;;2076118;28;20036;-67
2024/02/24 00:40:52;;;;;;;1.85;0.90;;;7.80;99.90;;;;;;2075949;28;20564;-66
2024/02/24 00:41:53;;;;;;;1.38;1.13;;;7.80;99.90;;;;;;2076974;28;20045;-67
2024/02/24 00:42:57;;;;;;;0.98;0.90;;;7.80;99.90;;;;;;2067359;28;20021;-67
2024/02/24 00:43:57;;;;;;;1.83;0.88;;;7.80;99.90;;;;;;2070335;28;20036;-67
2024/02/24 00:45:00;;;;;;;0.98;0.88;;;7.80;99.90;;;;;;2077606;28;20043;-68
2024/02/24 00:46:04;;;;;;;2.13;1.13;;;7.80;99.90;;;;;;2077071;28;20026;-66
2024/02/24 00:47:05;;;;;;;2.72;1.50;;;7.80;99.90;;;;;;2077443;28;20393;-67
2024/02/24 00:48:07;;;;;;;1.05;0.47;;;7.80;99.90;;;;;;2076371;28;20025;-68
2024/02/24 00:49:13;;;;;;;1.63;0.90;;;7.80;99.90;;;;;;2066604;28;20509;-66
2024/02/24 00:50:14;;;;;;;1.70;0.85;;;7.80;99.90;;;;;;2069746;28;20027;-67
2024/02/24 00:51:15;;;;;;;1.52;0.80;;;7.80;99.90;;;;;;2075089;28;20025;-68
2024/02/24 00:52:18;;;;;;;1.13;0.90;;;7.80;99.90;;;;;;2076914;28;20478;-68
2024/02/24 00:53:19;;;;;;;2.88;1.30;;;7.80;99.90;;;;;;2079828;28;20033;-68
2024/02/24 00:54:20;;;;;;;1.00;0.80;;;7.80;99.90;;;;;;2078366;28;20021;-66
2024/02/24 00:55:20;;;;;;;1.23;0.98;;;7.80;99.90;;;;;;2076701;28;20037;-66
2024/02/24 00:56:21;;;;;;;1.00;0.70;;;7.80;99.90;;;;;;2078465;28;20057;-67
2024/02/24 00:57:22;;;;;;;2.22;0.90;;;7.80;99.90;;;;;;2074811;28;20345;-67
2024/02/24 00:58:22;;;;;;;1.00;0.90;;;7.90;99.90;;;;;;2078336;28;20014;-66
2024/02/24 00:59:26;;;;;;;1.20;0.90;;;7.80;99.90;;;;;;2077635;28;20160;-68
2024/02/24 01:00:27;;;;;;;2.88;0.73;;;7.80;99.90;;;;;;2075934;28;20716;-67
2024/02/24 01:01:28;;;;;;;2.63;1.00;;;7.80;99.90;;;;;;2078277;28;20554;-67
2024/02/24 01:02:29;;;;;;;1.42;0.88;;;7.80;99.90;;;;;;2076458;28;20068;-66
2024/02/24 01:03:32;;;;;;;2.00;0.73;;;7.80;99.90;;;;;;2077174;28;20751;-66
2024/02/24 01:04:33;;;;;;;1.48;0.88;;;7.80;99.90;;;;;;2079421;28;20022;-67
2024/02/24 01:05:33;;;;;;;2.22;1.23;;;7.80;99.90;;;;;;2076322;28;20044;-68
2024/02/24 01:06:34;;;;;;;0.95;0.70;;;7.80;99.90;;;;;;2078474;28;20030;-67
2024/02/24 01:07:38;;;;;;;2.33;0.80;;;7.80;99.90;;;;;;2076202;28;20132;-67
2024/02/24 01:08:39;;;;;;;1.27;0.73;;;7.80;99.90;;;;;;2075798;28;20036;-67
2024/02/24 01:09:39;;;;;;;1.88;1.05;;;7.80;99.90;;;;;;2077638;28;20406;-66
2024/02/24 01:10:40;;;;;;;1.67;0.90;;;7.80;99.90;;;;;;2075732;28;20037;-67
2024/02/24 01:11:43;;;;;;;1.30;0.82;;;7.70;99.90;;;;;;2075247;28;20033;-67
2024/02/24 01:12:44;;;;;;;0.90;0.73;;;7.70;99.90;;;;;;2076918;28;20482;-66
2024/02/24 01:13:53;;;;;;;3.63;1.33;;;7.70;99.90;;;;;;2076014;28;20083;-68
2024/02/24 01:14:54;;;;;;;1.85;1.00;;;7.70;99.90;;;;;;2069558;28;20037;-67
2024/02/24 01:15:55;;;;;;;1.63;0.95;;;7.70;99.90;;;;;;2067915;28;20166;-67
2024/02/24 01:16:55;;;;;;;2.53;1.55;;;7.70;99.90;;;;;;2074957;28;20052;-68
2024/02/24 01:18:00;;;;;;;1.67;0.90;;;7.70;99.90;;;;;;2078108;28;20583;-67
2024/02/24 01:19:00;;;;;;;1.90;0.85;;;7.60;99.90;;;;;;2072045;28;20034;-67
2024/02/24 01:20:02;;;;;;;2.78;1.17;;;7.60;99.90;;;;;;2063228;28;20050;-67
2024/02/24 01:21:06;;;;;;;1.90;0.88;;;7.70;99.90;;;;;;2071139;28;20062;-67
2024/02/24 01:22:07;;;;;;;1.20;0.68;;;7.60;99.90;;;;;;2067592;28;20025;-66
2024/02/24 01:23:07;;;;;;;1.10;0.70;;;7.60;99.90;;;;;;2067965;28;20034;-67
2024/02/24 01:24:08;;;;;;;2.58;1.25;;;7.60;99.90;;;;;;2069211;28;20029;-66
2024/02/24 01:25:09;;;;;;;2.17;0.82;;;7.60;99.90;;;;;;2068111;28;20041;-67
2024/02/24 01:26:09;;;;;;;1.30;0.85;;;7.60;99.90;;;;;;2068302;28;20100;-68
2024/02/24 01:27:13;;;;;;;2.15;0.70;;;7.60;99.90;;;;;;2067543;28;20363;-67
2024/02/24 01:28:17;;;;;;;0.80;0.80;;;7.60;99.90;;;;;;2068525;28;20359;-67
2024/02/24 01:29:23;;;;;;;1.45;0.90;;;7.60;99.90;;;;;;2067582;28;20032;-67
2024/02/24 01:30:24;;;;;;;1.65;0.98;;;7.50;99.90;;;;;;2060372;28;20034;-67
2024/02/24 01:31:25;;;;;;;2.80;0.90;;;7.60;99.90;;;;;;2061232;28;20026;-66
2024/02/24 01:32:25;;;;;;;2.03;0.93;;;7.60;99.90;;;;;;2068830;28;20033;-68
2024/02/24 01:33:29;;;;;;;1.30;0.80;;;7.50;99.90;;;;;;2067886;28;20022;-68
2024/02/24 01:34:32;;;;;;;3.17;1.17;;;7.50;99.90;;;;;;2069516;28;20394;-67
2024/02/24 01:35:34;;;;;;;1.52;1.10;;;7.50;99.90;;;;;;2068222;28;20034;-67
2024/02/24 01:36:35;;;;;;;0.77;0.60;;;7.50;99.90;;;;;;2067052;28;20028;-66
2024/02/24 01:37:36;;;;;;;1.42;1.02;;;7.50;99.90;;;;;;2069511;28;20033;-68
2024/02/24 01:38:36;;;;;;;1.52;0.88;;;7.50;99.90;;;;;;2062629;28;20037;-66
2024/02/24 01:39:37;;;;;;;0.85;0.80;;;7.50;99.90;;;;;;2064115;28;20057;-67
2024/02/24 01:40:38;;;;;;;1.63;1.00;;;7.50;99.90;;;;;;2067852;28;20030;-67
2024/02/24 01:41:39;;;;;;;1.70;0.98;;;7.50;99.90;;;;;;2068871;28;20045;-67
2024/02/24 01:42:43;;;;;;;1.30;0.80;;;7.50;99.90;;;;;;2067923;28;20049;-67
2024/02/24 01:43:46;;;;;;;1.88;1.08;;;7.50;99.90;;;;;;2067836;28;20081;-67
2024/02/24 01:44:49;;;;;;;1.50;0.68;;;7.50;99.90;;;;;;2068144;28;20114;-66
2024/02/24 01:45:56;;;;;;;1.15;0.80;;;7.50;99.90;;;;;;2069210;28;20117;-67
2024/02/24 01:46:57;;;;;;;1.45;0.93;;;7.50;99.90;;;;;;2068548;28;20038;-67
2024/02/24 01:47:58;;;;;;;1.40;0.73;;;7.50;99.90;;;;;;2067208;28;20637;-67
2024/02/24 01:48:58;;;;;;;2.20;0.75;;;7.50;99.90;;;;;;2068727;28;20053;-67
2024/02/24 01:50:00;;;;;;;1.92;1.00;;;7.50;99.90;;;;;;2060554;28;20394;-68
2024/02/24 01:51:02;;;;;;;1.83;0.90;;;7.50;99.90;;;;;;2061693;28;20499;-67
2024/02/24 01:52:03;;;;;;;2.50;1.13;;;7.40;99.90;;;;;;2061884;28;20038;-66
2024/02/24 01:53:03;;;;;;;1.50;0.90;;;7.50;99.90;;;;;;2063187;28;20022;-67
2024/02/24 01:54:05;;;;;;;1.65;1.00;;;7.50;99.90;;;;;;2067429;28;20029;-67
2024/02/24 01:55:07;;;;;;;1.60;1.00;;;7.50;99.90;;;;;;2066733;28;20411;-67
2024/02/24 01:56:09;;;;;;;2.58;1.00;;;7.50;99.90;;;;;;2071233;28;20026;-67
2024/02/24 01:57:12;;;;;;;1.10;0.80;;;7.50;99.90;;;;;;2067729;28;20023;-66
2024/02/24 01:58:14;;;;;;;1.40;0.73;;;7.50;99.90;;;;;;2070020;28;20127;-67
2024/02/24 01:59:15;;;;;;;5.53;1.27;;;7.50;99.90;;;;;;2060078;28;20027;-67
2024/02/24 02:00:16;;;;;;;2.90;0.85;;;7.50;99.90;;;;;;2061980;28;20033;-67
2024/02/24 02:01:17;;;;;;;2.63;0.80;;;7.50;99.90;;;;;;2070289;28;20026;-67
2024/02/24 02:02:17;;;;;;;3.70;0.93;;;7.50;99.90;;;;;;2068304;28;20022;-68
2024/02/24 02:03:18;;;;;;;2.25;0.98;;;7.50;99.90;;;;;;2070134;28;20518;-67
2024/02/24 02:04:18;;;;;;;1.20;0.60;;;7.50;99.90;;;;;;2067640;28;20022;-67
2024/02/24 02:05:19;;;;;;;1.48;1.08;;;7.50;99.90;;;;;;2066904;28;20038;-67
2024/02/24 02:06:21;;;;;;;1.70;0.88;;;7.50;99.90;;;;;;2069052;28;20030;-67
2024/02/24 02:07:22;;;;;;;0.70;0.57;;;7.60;99.90;;;;;;2068153;28;20355;-67
2024/02/24 02:08:22;;;;;;;2.10;1.10;;;7.60;99.90;;;;;;2069322;28;20050;-67
2024/02/24 02:09:25;;;;;;;1.25;0.90;;;7.50;99.90;;;;;;2071930;28;20032;-66
2024/02/24 02:10:25;;;;;;;1.83;0.90;;;7.50;99.90;;;;;;2068979;28;20053;-67
2024/02/24 02:11:26;;;;;;;2.35;1.08;;;7.50;99.90;;;;;;2069767;28;20657;-68
2024/02/24 02:12:27;;;;;;;2.70;1.55;;;7.50;99.90;;;;;;2067570;28;20034;-66
2024/02/24 02:13:31;;;;;;;2.03;0.70;;;7.50;99.90;;;;;;2069284;28;20419;-67
2024/02/24 02:14:31;;;;;;;2.42;0.80;;;7.50;99.90;;;;;;2070700;28;20033;-67
2024/02/24 02:15:32;;;;;;;1.48;0.85;;;7.50;99.90;;;;;;2071273;28;20062;-67
2024/02/24 02:16:33;;;;;;;1.00;0.82;;;7.50;99.90;;;;;;2068227;28;20061;-66
2024/02/24 02:17:33;;;;;;;1.13;0.80;;;7.50;99.90;;;;;;2070612;28;20026;-67
2024/02/24 02:18:34;;;;;;;1.67;0.88;;;7.50;99.90;;;;;;2069627;28;20471;-68
2024/02/24 02:19:35;;;;;;;1.50;0.98;;;7.50;99.90;;;;;;2072384;28;20063;-66
2024/02/24 02:20:36;;;;;;;1.38;0.85;;;7.50;99.90;;;;;;2076341;28;20029;-67
2024/02/24 02:21:41;;;;;;;1.83;0.90;;;7.50;99.90;;;;;;2079697;28;20352;-68
2024/02/24 02:22:45;;;;;;;1.40;0.90;;;7.50;99.90;;;;;;2079113;28;20029;-68
2024/02/24 02:23:45;;;;;;;1.48;1.02;;;7.50;99.90;;;;;;2075952;28;20029;-68
2024/02/24 02:24:48;;;;;;;6.40;1.35;;;7.40;99.90;;;;;;2074405;28;20034;-68
2024/02/24 02:25:55;;;;;;;3.25;0.93;;;7.40;99.90;;;;;;2077762;28;20030;-67
2024/02/24 02:26:56;;;;;;;1.55;0.90;;;7.40;99.90;;;;;;2078149;28;20095;-67
2024/02/24 02:27:56;;;;;;;1.90;1.02;;;7.40;99.90;;;;;;2079434;28;20033;-67
2024/02/24 02:29:00;;;;;;;1.27;0.90;;;7.40;99.90;;;;;;2077513;28;20068;-67
2024/02/24 02:30:03;;;;;;;2.58;1.13;;;7.40;99.90;;;;;;2076950;28;20025;-67
2024/02/24 02:31:03;;;;;;;2.25;0.80;;;7.40;99.90;;;;;;2080130;28;20079;-67
2024/02/24 02:32:04;;;;;;;1.90;0.75;;;7.40;99.90;;;;;;2077632;28;20073;-67
2024/02/24 02:33:11;;;;;;;2.88;1.05;;;7.40;99.90;;;;;;2071900;28;20072;-67
2024/02/24 02:34:14;;;;;;;1.30;0.77;;;7.40;99.90;;;;;;2073631;28;20023;-67
2024/02/24 02:35:15;;;;;;;1.08;0.90;;;7.40;99.90;;;;;;2079128;28;20065;-66
2024/02/24 02:36:15;;;;;;;2.63;0.90;;;7.40;99.90;;;;;;2077710;28;20022;-67
2024/02/24 02:37:16;;;;;;;2.35;1.10;;;7.30;99.90;;;;;;2079573;28;20121;-67
2024/02/24 02:38:16;;;;;;;3.75;0.80;;;7.30;99.90;;;;;;2069938;28;20030;-67
2024/02/24 02:39:17;;;;;;;3.50;1.17;;;7.30;99.90;;;;;;2068733;28;20042;-67
2024/02/24 02:40:18;;;;;;;1.58;1.35;;;7.30;99.90;;;;;;2080159;28;20603;-67
2024/02/24 02:41:18;;;;;;;2.03;1.02;;;7.30;99.90;;;;;;2076506;28;20058;-67
2024/02/24 02:42:19;;;;;;;1.27;0.77;;;7.30;99.90;;;;;;2079786;28;20013;-67
2024/02/24 02:43:19;;;;;;;2.15;0.95;;;7.30;99.90;;;;;;2079420;28;20045;-66
2024/02/24 02:44:20;;;;;;;2.28;0.90;;;7.30;99.90;;;;;;2077884;28;20104;-67
2024/02/24 02:45:20;;;;;;;1.25;0.82;;;7.30;99.90;;;;;;2068630;28;20442;-66
2024/02/24 02:46:21;;;;;;;0.95;0.80;;;7.20;99.90;;;;;;2069591;28;20040;-67
2024/02/24 02:47:21;;;;;;;2.95;1.02;;;7.30;99.90;;;;;;2077351;28;20033;-67
2024/02/24 02:48:22;;;;;;;1.40;0.80;;;7.20;99.90;;;;;;2079980;28;20037;-67
2024/02/24 02:49:23;;;;;;;1.40;0.90;;;7.20;99.90;;;;;;2078035;28;20021;-67
2024/02/24 02:50:23;;;;;;;1.85;0.80;;;7.20;99.90;;;;;;2079225;28;20026;-67
2024/02/24 02:51:24;;;;;;;2.22;1.00;;;7.20;99.90;;;;;;2079425;28;20117;-67
2024/02/24 02:52:24;;;;;;;1.88;0.90;;;7.20;99.90;;;;;;2077537;28;20097;-67
2024/02/24 02:53:25;;;;;;;1.77;0.70;;;7.20;99.90;;;;;;2068111;28;20054;-68
2024/02/24 02:54:25;;;;;;;1.77;0.70;;;7.20;99.90;;;;;;2070874;28;20482;-67
2024/02/24 02:55:29;;;;;;;1.10;0.85;;;7.10;99.90;;;;;;2078504;28;20394;-68
2024/02/24 02:56:30;;;;;;;1.02;0.70;;;7.10;99.90;;;;;;2078163;28;20040;-68
2024/02/24 02:57:30;;;;;;;2.47;0.65;;;7.10;99.90;;;;;;2076420;28;20309;-68
2024/02/24 02:58:31;;;;;;;1.25;1.02;;;7.10;99.90;;;;;;2078691;28;20068;-67
2024/02/24 02:59:35;;;;;;;0.80;0.80;;;7.10;99.90;;;;;;2078438;28;20029;-67
2024/02/24 03:00:38;;;;;;;1.23;0.80;;;7.10;99.90;;;;;;2080126;28;20088;-67
2024/02/24 03:01:51;;;;;;;0.70;0.70;;;7.10;99.90;;;;;;2076196;28;20042;-68
2024/02/24 03:02:52;;;;;;;1.38;0.60;;;7.10;99.90;;;;;;2075593;28;20033;-67
2024/02/24 03:03:52;;;;;;;2.80;0.70;;;7.00;99.90;;;;;;2076963;28;20030;-67
2024/02/24 03:04:53;;;;;;;1.23;0.60;;;7.00;99.90;;;;;;2078471;28;20057;-67
2024/02/24 03:05:53;;;;;;;3.40;0.82;;;7.00;99.90;;;;;;2076075;28;20538;-67
2024/02/24 03:06:57;;;;;;;0.70;0.63;;;7.00;99.90;;;;;;2077940;28;20473;-67
2024/02/24 03:07:57;;;;;;;1.02;0.70;;;7.00;99.90;;;;;;2077501;28;20025;-68
2024/02/24 03:08:58;;;;;;;0.63;0.63;;;7.00;99.90;;;;;;2077219;28;20034;-67
2024/02/24 03:09:59;;;;;;;1.65;0.70;;;7.00;99.90;;;;;;2075770;28;20021;-68
2024/02/24 03:11:02;;;;;;;1.02;0.50;;;7.00;99.90;;;;;;2079232;28;20028;-67
2024/02/24 03:12:04;;;;;;;0.60;0.55;;;7.00;99.90;;;;;;2076525;28;20108;-67
2024/02/24 03:13:08;;;;;;;1.42;0.77;;;7.00;99.90;;;;;;2077889;28;20042;-67
2024/02/24 03:14:09;;;;;;;2.25;1.20;;;7.00;99.90;;;;;;2077362;28;20113;-68
2024/02/24 03:15:09;;;;;;;1.70;0.80;;;7.00;99.90;;;;;;2076991;28;20041;-67
2024/02/24 03:16:10;;;;;;;2.25;0.50;;;7.00;99.90;;;;;;2078271;28;20463;-68
2024/02/24 03:17:11;;;;;;;0.60;0.50;;;7.00;99.90;;;;;;2077800;28;20029;-67
2024/02/24 03:18:11;;;;;;;1.25;0.80;;;7.00;99.90;;;;;;2075828;28;20490;-67
2024/02/24 03:19:12;;;;;;;1.02;0.80;;;7.00;99.90;;;;;;2074643;28;20109;-68
2024/02/24 03:20:15;;;;;;;0.80;0.63;;;7.00;99.90;;;;;;2075775;28;20033;-67
2024/02/24 03:21:26;;;;;;;0.52;0.52;;;7.00;99.90;;;;;;2079053;28;20686;-68
2024/02/24 03:22:28;;;;;;;1.30;0.80;;;7.00;99.90;;;;;;2068393;28;20045;-67
2024/02/24 03:23:31;;;;;;;3.67;1.05;;;7.00;99.90;;;;;;2071240;28;20029;-67
2024/02/24 03:24:32;;;;;;;1.52;0.70;;;7.00;99.90;;;;;;2075754;28;20028;-67
2024/02/24 03:25:33;;;;;;;0.93;0.70;;;7.00;99.90;;;;;;2077340;28;20053;-68
2024/02/24 03:26:33;;;;;;;1.55;0.70;;;7.10;99.90;;;;;;2077813;28;20375;-67
2024/02/24 03:27:34;;;;;;;1.58;0.70;;;7.00;99.90;;;;;;2077899;28;20086;-66
2024/02/24 03:28:39;;;;;;;0.60;0.50;;;7.00;99.90;;;;;;2067522;28;20026;-66
2024/02/24 03:29:40;;;;;;;0.95;0.40;;;7.00;99.90;;;;;;2068685;28;20030;-68
2024/02/24 03:30:40;;;;;;;0.50;0.50;;;7.00;99.90;;;;;;2075445;28;20093;-67
2024/02/24 03:31:43;;;;;;;1.20;0.85;;;7.00;99.90;;;;;;2078717;28;20133;-67
2024/02/24 03:32:44;;;;;;;3.10;0.98;;;7.00;99.90;;;;;;2067322;28;20026;-68
2024/02/24 03:33:45;;;;;;;0.93;0.68;;;7.00;99.90;;;;;;2069090;28;20548;-67
2024/02/24 03:34:45;;;;;;;0.73;0.60;;;7.00;99.90;;;;;;2074982;28;20028;-67
2024/02/24 03:35:46;;;;;;;1.50;1.10;;;7.10;99.90;;;;;;2080569;28;20049;-67
2024/02/24 03:36:46;;;;;;;0.80;0.80;;;7.10;99.90;;;;;;2078842;28;20025;-67
2024/02/24 03:37:49;;;;;;;1.00;0.70;;;7.10;99.90;;;;;;2078193;28;20033;-68
2024/02/24 03:38:52;;;;;;;1.02;0.50;;;7.10;99.90;;;;;;2076485;28;20022;-67
2024/02/24 03:39:59;;;;;;;1.00;0.70;;;7.10;99.90;;;;;;2079019;28;20037;-68
2024/02/24 03:41:05;;;;;;;0.80;0.70;;;7.10;99.90;;;;;;2076119;28;20088;-67
2024/02/24 03:42:06;;;;;;;0.57;0.57;;;7.10;99.90;;;;;;2078425;28;20486;-66
2024/02/24 03:43:06;;;;;;;1.00;0.63;;;7.10;99.90;;;;;;2077405;28;20056;-66
2024/02/24 03:44:07;;;;;;;1.30;0.60;;;7.10;99.90;;;;;;2076202;28;20125;-67
2024/02/24 03:45:08;;;;;;;0.73;0.70;;;7.10;99.90;;;;;;2078214;28;20037;-67
2024/02/24 03:46:09;;;;;;;0.60;0.60;;;7.10;99.90;;;;;;2076060;28;20041;-67
2024/02/24 03:47:09;;;;;;;0.60;0.60;;;7.10;99.90;;;;;;2080222;28;20034;-68
2024/02/24 03:48:10;;;;;;;0.40;0.40;;;7.20;99.90;;;;;;2077386;28;20547;-67
2024/02/24 03:49:10;;;;;;;1.77;0.52;;;7.20;99.90;;;;;;2074888;28;20026;-67
2024/02/24 03:50:11;;;;;;;1.35;0.50;;;7.20;99.90;;;;;;2078314;28;20029;-67
2024/02/24 03:51:12;;;;;;;1.30;0.90;;;7.20;99.90;;;;;;2075132;28;20045;-67
2024/02/24 03:52:12;;;;;;;0.57;0.50;;;7.20;99.90;;;;;;2074911;28;20325;-68
2024/02/24 03:53:14;;;;;;;0.80;0.50;;;7.20;99.90;;;;;;2077082;28;20470;-67
2024/02/24 03:54:17;;;;;;;0.55;0.52;;;7.20;99.90;;;;;;2076726;28;20018;-67
2024/02/24 03:55:18;;;;;;;1.67;0.60;;;7.20;99.90;;;;;;2077695;28;20017;-67
2024/02/24 03:56:18;;;;;;;0.52;0.52;;;7.20;99.90;;;;;;2077098;28;20021;-67
2024/02/24 03:57:19;;;;;;;0.73;0.50;;;7.20;99.90;;;;;;2079501;28;20025;-67
2024/02/24 03:58:19;;;;;;;1.45;0.70;;;7.20;99.90;;;;;;2079674;28;20030;-67
2024/02/24 03:59:23;;;;;;;0.90;0.55;;;7.20;99.90;;;;;;2078413;28;20445;-66
2024/02/24 04:00:23;;;;;;;1.10;0.60;;;7.20;99.90;;;;;;2075337;28;20029;-67
2024/02/24 04:01:27;;;;;;;1.95;0.75;;;7.20;99.90;;;;;;2079624;28;20030;-67
2024/02/24 04:02:27;;;;;;;1.48;0.65;;;7.20;99.90;;;;;;2076531;28;20363;-67
2024/02/24 04:03:28;;;;;;;1.90;0.90;;;7.20;99.90;;;;;;2078379;28;20076;-67
2024/02/24 04:04:28;;;;;;;0.82;0.75;;;7.30;99.90;;;;;;2075990;28;20026;-66
2024/02/24 04:05:30;;;;;;;1.10;0.70;;;7.30;99.90;;;;;;2077232;28;20036;-66
2024/02/24 04:06:30;;;;;;;0.73;0.60;;;7.30;99.90;;;;;;2076286;28;20108;-67
2024/02/24 04:07:31;;;;;;;3.03;1.00;;;7.30;99.90;;;;;;2078946;28;20558;-68
2024/02/24 04:08:31;;;;;;;1.02;0.73;;;7.30;99.90;;;;;;2079140;28;20668;-67
2024/02/24 04:09:32;;;;;;;0.88;0.77;;;7.30;99.90;;;;;;2079247;28;20120;-66
2024/02/24 04:10:32;;;;;;;0.75;0.60;;;7.30;99.90;;;;;;2074502;28;20029;-67
2024/02/24 04:11:35;;;;;;;1.67;0.80;;;7.30;99.90;;;;;;2076334;28;20029;-68
2024/02/24 04:12:38;;;;;;;1.42;0.73;;;7.30;99.90;;;;;;2076764;28;20358;-68
2024/02/24 04:13:39;;;;;;;2.78;0.70;;;7.30;99.90;;;;;;2076240;28;20034;-67
2024/02/24 04:14:39;;;;;;;1.42;0.80;;;7.30;99.90;;;;;;2075801;28;20053;-67
2024/02/24 04:15:47;;;;;;;1.50;0.90;;;7.30;99.90;;;;;;2077110;28;20087;-67
2024/02/24 04:16:47;;;;;;;0.60;0.60;;;7.30;99.90;;;;;;2076608;28;20364;-67
2024/02/24 04:17:51;;;;;;;1.63;0.80;;;7.30;99.90;;;;;;2076192;28;20056;-67
2024/02/24 04:18:52;;;;;;;1.10;0.80;;;7.30;99.90;;;;;;2077359;28;20037;-67
2024/02/24 04:19:55;;;;;;;1.05;0.80;;;7.30;99.90;;;;;;2075946;28;20081;-67
2024/02/24 04:20:56;;;;;;;0.70;0.68;;;7.30;99.90;;;;;;2074201;28;20091;-68
2024/02/24 04:21:59;;;;;;;1.17;0.70;;;7.30;99.90;;;;;;2077820;28;20029;-67
2024/02/24 04:23:00;;;;;;;1.50;0.70;;;7.30;99.90;;;;;;2071918;28;20031;-66
2024/02/24 04:24:00;;;;;;;0.98;0.88;;;7.30;99.90;;;;;;2072889;28;20109;-67
2024/02/24 04:25:01;;;;;;;1.13;0.70;;;7.30;99.90;;;;;;2068036;28;20034;-68
2024/02/24 04:26:02;;;;;;;0.82;0.60;;;7.30;99.90;;;;;;2068969;28;20040;-68
2024/02/24 04:27:02;;;;;;;3.55;0.52;;;7.30;99.90;;;;;;2078841;28;20051;-67
2024/02/24 04:28:06;;;;;;;0.82;0.70;;;7.30;99.90;;;;;;2059450;28;20034;-67
2024/02/24 04:29:06;;;;;;;0.65;0.60;;;7.30;99.90;;;;;;2065135;28;20026;-67
2024/02/24 04:30:07;;;;;;;2.20;0.60;;;7.30;99.90;;;;;;2077178;28;20021;-67
2024/02/24 04:31:08;;;;;;;0.93;0.75;;;7.30;99.90;;;;;;2076417;28;20032;-67
2024/02/24 04:32:08;;;;;;;1.27;0.95;;;7.30;99.90;;;;;;2076281;28;20701;-67
2024/02/24 04:33:09;;;;;;;0.80;0.80;;;7.30;99.90;;;;;;2073993;28;20481;-68
2024/02/24 04:34:09;;;;;;;0.60;0.60;;;7.30;99.90;;;;;;2076202;28;20049;-67
2024/02/24 04:35:13;;;;;;;1.42;0.73;;;7.30;99.90;;;;;;2074875;28;20026;-67
2024/02/24 04:36:14;;;;;;;3.70;0.93;;;7.30;99.90;;;;;;2075082;28;20021;-67
2024/02/24 04:37:20;;;;;;;0.55;0.52;;;7.30;99.90;;;;;;2076046;28;20026;-66
2024/02/24 04:38:21;;;;;;;0.75;0.70;;;7.30;99.90;;;;;;2076287;28;20425;-67
2024/02/24 04:39:22;;;;;;;1.23;0.90;;;7.30;99.90;;;;;;2069875;28;20049;-68
2024/02/24 04:40:23;;;;;;;0.95;0.70;;;7.30;99.90;;;;;;2071510;28;20436;-68
2024/02/24 04:41:26;;;;;;;1.55;0.80;;;7.30;99.90;;;;;;2069681;28;20030;-67
2024/02/24 04:42:26;;;;;;;1.55;0.80;;;7.30;99.90;;;;;;2069621;28;20022;-67
2024/02/24 04:43:27;;;;;;;0.68;0.68;;;7.30;99.90;;;;;;2074592;28;20021;-68
2024/02/24 04:44:28;;;;;;;1.92;0.70;;;7.30;99.90;;;;;;2077396;28;20026;-66
2024/02/24 04:45:28;;;;;;;0.90;0.80;;;7.30;99.90;;;;;;2078221;28;20670;-67
2024/02/24 04:46:29;;;;;;;1.00;0.82;;;7.30;99.90;;;;;;2069587;28;20489;-67
2024/02/24 04:47:29;;;;;;;1.00;0.80;;;7.30;99.90;;;;;;2067473;28;20036;-67
2024/02/24 04:48:30;;;;;;;1.85;1.00;;;7.30;99.90;;;;;;2077072;28;20033;-67
2024/02/24 04:49:30;;;;;;;0.70;0.70;;;7.30;99.90;;;;;;2076078;28;20030;-67
2024/02/24 04:50:31;;;;;;;0.60;0.60;;;7.30;99.90;;;;;;2077434;28;20371;-68
2024/02/24 04:51:31;;;;;;;0.88;0.63;;;7.30;99.90;;;;;;2075703;28;20026;-67
2024/02/24 04:52:32;;;;;;;1.90;0.70;;;7.30;99.90;;;;;;2075136;28;20122;-67
2024/02/24 04:53:33;;;;;;;1.65;0.70;;;7.30;99.90;;;;;;2076991;28;20025;-67
2024/02/24 04:54:33;;;;;;;1.00;0.60;;;7.30;99.90;;;;;;2076530;28;20101;-67
2024/02/24 04:55:34;;;;;;;1.08;0.70;;;7.40;99.90;;;;;;2074317;28;20097;-68
2024/02/24 04:56:34;;;;;;;0.77;0.60;;;7.40;99.90;;;;;;2078052;28;20033;-68
2024/02/24 04:57:35;;;;;;;0.90;0.90;;;7.30;99.90;;;;;;2061296;28;20114;-67
2024/02/24 04:58:42;;;;;;;0.93;0.60;;;7.40;99.90;;;;;;2063971;28;20053;-67
2024/02/24 04:59:45;;;;;;;0.60;0.40;;;7.40;99.90;;;;;;2071419;28;20030;-67
2024/02/24 05:00:46;;;;;;;1.00;0.90;;;7.30;99.90;;;;;;2070335;28;20046;-67
2024/02/24 05:01:46;;;;;;;1.27;0.70;;;7.40;99.90;;;;;;2075637;28;20061;-67
2024/02/24 05:02:49;;;;;;;0.60;0.60;;;7.40;99.90;;;;;;2071317;28;20176;-68
2024/02/24 05:03:49;;;;;;;1.45;0.77;;;7.40;99.90;;;;;;2070678;28;20428;-67
2024/02/24 05:04:52;;;;;;;1.23;0.80;;;7.40;99.90;;;;;;2078050;28;20050;-67
2024/02/24 05:05:52;;;;;;;3.42;1.15;;;7.40;99.90;;;;;;2077047;28;20033;-67
2024/02/24 05:06:53;;;;;;;1.73;0.70;;;7.40;99.90;;;;;;2074360;28;20021;-67
2024/02/24 05:07:54;;;;;;;1.55;0.90;;;7.40;99.90;;;;;;2075388;28;20034;-66
2024/02/24 05:08:55;;;;;;;2.55;0.80;;;7.40;99.90;;;;;;2075019;28;20033;-67
2024/02/24 05:09:56;;;;;;;0.70;0.70;;;7.40;99.90;;;;;;2068588;28;20489;-68
2024/02/24 05:11:00;;;;;;;0.68;0.63;;;7.40;99.90;;;;;;2068821;28;20788;-67
2024/02/24 05:12:00;;;;;;;0.90;0.80;;;7.40;99.90;;;;;;2075864;28;20466;-67
2024/02/24 05:13:01;;;;;;;1.42;0.65;;;7.40;99.90;;;;;;2076125;28;20406;-68
2024/02/24 05:14:01;;;;;;;2.63;0.70;;;7.40;99.90;;;;;;2077796;28;20025;-68
2024/02/24 05:15:02;;;;;;;0.75;0.50;;;7.40;99.90;;;;;;2076467;28;20026;-68
2024/02/24 05:16:04;;;;;;;0.63;0.52;;;7.40;99.90;;;;;;2076941;28;20030;-66
2024/02/24 05:17:07;;;;;;;1.70;0.70;;;7.40;99.90;;;;;;2074903;28;20037;-67
2024/02/24 05:18:07;;;;;;;1.50;0.90;;;7.40;99.90;;;;;;2077115;28;20041;-67
2024/02/24 05:19:10;;;;;;;1.27;0.60;;;7.40;99.90;;;;;;2066865;28;20038;-67
2024/02/24 05:20:13;;;;;;;1.60;0.63;;;7.40;99.90;;;;;;2068343;28;20064;-68
2024/02/24 05:21:23;;;;;;;0.73;0.50;;;7.50;99.90;;;;;;2071962;28;20130;-68
2024/02/24 05:22:25;;;;;;;0.88;0.70;;;7.40;99.90;;;;;;2079122;28;20462;-67
2024/02/24 05:23:26;;;;;;;0.93;0.75;;;7.40;99.90;;;;;;2075516;28;20037;-67
2024/02/24 05:24:26;;;;;;;0.73;0.60;;;7.50;99.90;;;;;;2073665;28;20052;-67